createdAt,value
2022-07-29T00:16:05.581Z,99098.09
2022-07-29T00:22:43.437Z,99116.59
2022-07-29T00:25:11.257Z,99106.88
2022-07-29T00:27:38.627Z,99147.38
2022-07-29T00:31:10.692Z,99144.66
2022-07-29T00:39:23.531Z,99119.09
2022-07-29T00:46:41.861Z,99137.16
2022-07-29T00:49:43.250Z,99164.00
2022-07-29T00:52:50.125Z,99135.31
2022-07-29T00:55:23.235Z,99153.03
2022-07-29T00:58:00.722Z,99145.19
2022-07-29T01:01:26.236Z,99135.66
2022-07-29T01:04:25.259Z,99135.75
2022-07-29T01:07:35.955Z,99147.34
2022-07-29T01:10:24.323Z,99159.53
2022-07-29T01:13:13.976Z,99152.00
2022-07-29T01:16:22.935Z,99138.53
2022-07-29T01:19:24.398Z,99142.63
2022-07-29T01:22:46.933Z,99150.75
2022-07-29T01:26:21.987Z,99161.72
2022-07-29T01:29:38.644Z,99157.03
2022-07-29T01:32:32.339Z,99133.03
2022-07-29T01:35:39.299Z,99156.50
2022-07-29T01:38:43.212Z,99152.66
2022-07-29T01:42:36.527Z,99163.50
2022-07-29T01:51:26.985Z,99146.84
2022-07-29T01:57:36.399Z,99167.78
2022-07-29T02:01:24.633Z,99142.56
2022-07-29T02:10:01.886Z,99176.25
2022-07-29T02:13:10.154Z,99178.31
2022-07-29T02:16:09.043Z,99182.16
2022-07-29T02:18:59.080Z,99163.59
2022-07-29T02:21:38.290Z,99172.88
2022-07-29T02:24:21.148Z,99162.41
2022-07-29T02:27:04.440Z,99154.47
2022-07-29T02:30:12.894Z,99189.47
2022-07-29T02:32:59.509Z,99165.13
2022-07-29T02:35:34.638Z,99151.19
2022-07-29T02:38:46.519Z,99164.75
2022-07-29T02:42:22.124Z,99161.22
2022-07-29T02:49:21.620Z,99154.28
2022-07-29T02:52:02.273Z,99177.97
2022-07-29T02:55:04.416Z,99151.28
2022-07-29T02:58:28.881Z,99161.22
2022-07-29T03:01:47.454Z,99163.88
2022-07-29T03:04:36.381Z,99169.03
2022-07-29T03:07:27.515Z,99168.50
2022-07-29T03:10:05.260Z,99159.44
2022-07-29T03:12:44.245Z,99144.84
2022-07-29T03:15:20.772Z,99152.13
2022-07-29T03:18:18.684Z,99162.78
2022-07-29T03:21:19.476Z,99163.75
2022-07-29T03:25:04.303Z,99165.53
2022-07-29T03:35:40.772Z,99171.06
2022-07-29T03:38:32.746Z,99170.44
2022-07-29T03:41:11.009Z,99168.00
2022-07-29T03:43:49.285Z,99171.47
2022-07-29T03:46:24.213Z,99197.31
2022-07-29T03:49:04.609Z,99168.25
2022-07-29T03:51:45.246Z,99193.97
2022-07-29T03:54:27.758Z,99189.13
2022-07-29T03:57:16.881Z,99164.59
2022-07-29T04:00:25.325Z,99187.59
2022-07-29T04:07:30.598Z,99195.22
2022-07-29T04:10:36.239Z,99170.78
2022-07-29T04:16:55.209Z,99177.47
2022-07-29T04:19:50.466Z,99195.38
2022-07-29T04:22:36.256Z,99177.25
2022-07-29T04:25:07.210Z,99192.78
2022-07-29T04:27:57.534Z,99186.38
2022-07-29T04:30:28.789Z,99185.66
2022-07-29T04:33:02.806Z,99187.38
2022-07-29T04:35:43.623Z,99180.56
2022-07-29T04:38:18.317Z,99181.00
2022-07-29T04:40:56.812Z,99203.84
2022-07-29T04:43:44.102Z,99194.81
2022-07-29T04:46:14.721Z,99188.22
2022-07-29T04:52:31.956Z,99212.59
2022-07-29T04:55:03.542Z,99195.66
2022-07-29T04:57:32.911Z,99205.25
2022-07-29T05:00:00.470Z,99204.75
2022-07-29T05:02:30.389Z,99203.00
2022-07-29T05:04:58.888Z,99186.50
2022-07-29T05:07:33.022Z,99198.66
2022-07-29T05:10:03.122Z,99217.34
2022-07-29T05:12:39.428Z,99212.81
2022-07-29T05:15:22.217Z,99191.38
2022-07-29T05:23:28.419Z,99202.72
2022-07-29T05:26:01.295Z,99201.38
2022-07-29T05:28:36.343Z,99214.44
2022-07-29T05:31:09.746Z,99196.94
2022-07-29T05:33:37.492Z,99215.75
2022-07-29T05:36:11.825Z,99193.34
2022-07-29T05:38:39.334Z,99216.34
2022-07-29T05:41:06.899Z,99194.16
2022-07-29T05:43:36.926Z,99195.31
2022-07-29T05:46:04.404Z,99206.38
2022-07-29T05:48:32.272Z,99190.56
2022-07-29T05:51:02.214Z,99195.34
2022-07-29T05:54:29.643Z,99209.91
2022-07-29T05:57:24.178Z,99215.59
2022-07-29T05:59:52.390Z,99207.81
2022-07-29T06:02:19.665Z,99199.75
2022-07-29T06:04:46.871Z,99183.28
2022-07-29T06:07:14.754Z,99200.72
2022-07-29T06:09:41.862Z,99192.31
2022-07-29T06:12:12.815Z,99203.94
2022-07-29T06:14:40.619Z,99192.31
2022-07-29T06:17:20.420Z,99190.03
2022-07-29T06:20:02.994Z,99184.22
2022-07-29T06:22:46.287Z,99196.19
2022-07-29T06:29:11.963Z,99175.47
2022-07-29T06:31:51.656Z,99198.28
2022-07-29T06:34:24.170Z,99193.41
2022-07-29T06:36:51.425Z,99185.16
2022-07-29T06:39:20.919Z,99185.03
2022-07-29T06:41:52.166Z,99171.41
2022-07-29T06:44:25.031Z,99174.25
2022-07-29T06:47:11.613Z,99182.63
2022-07-29T06:49:39.012Z,99174.19
2022-07-29T06:52:11.288Z,99180.44
2022-07-29T06:54:48.944Z,99193.06
2022-07-29T06:57:17.274Z,99189.16
2022-07-29T06:59:44.607Z,99175.72
2022-07-29T07:02:11.819Z,99172.28
2022-07-29T07:04:39.361Z,99196.47
2022-07-29T07:12:18.229Z,99171.56
2022-07-29T07:14:45.987Z,99178.81
2022-07-29T07:17:13.357Z,99194.81
2022-07-29T07:19:43.351Z,99174.78
2022-07-29T07:22:11.431Z,99179.19
2022-07-29T07:24:38.618Z,99191.03
2022-07-29T07:27:06.055Z,99212.28
2022-07-29T07:29:34.019Z,99184.97
2022-07-29T07:32:01.626Z,99213.38
2022-07-29T07:34:29.813Z,99172.84
2022-07-29T07:37:03.539Z,99190.00
2022-07-29T07:39:30.782Z,99188.84
2022-07-29T07:41:58.113Z,99192.97
2022-07-29T07:44:25.449Z,99189.66
2022-07-29T07:46:52.820Z,99202.81
2022-07-29T07:49:22.339Z,99193.16
2022-07-29T07:51:50.691Z,99184.75
2022-07-29T07:55:14.381Z,99193.63
2022-07-29T07:58:04.370Z,99181.66
2022-07-29T08:00:33.375Z,99211.78
2022-07-29T08:03:05.172Z,99187.28
2022-07-29T08:05:48.122Z,99204.31
2022-07-29T08:08:17.824Z,99185.66
2022-07-29T08:11:09.037Z,99190.94
2022-07-29T08:31:11.902Z,99201.78
2022-07-29T09:37:35.963Z,99173.22
2022-07-29T09:45:36.144Z,99207.13
2022-07-29T09:48:36.381Z,99199.75
2022-07-29T09:54:55.298Z,99190.16
2022-07-29T10:04:28.066Z,99207.00
2022-07-29T10:07:27.505Z,99209.56
2022-07-29T10:19:27.648Z,99185.25
2022-07-29T10:21:59.157Z,99209.31
2022-07-29T10:29:12.014Z,99169.75
2022-07-29T10:32:30.857Z,99191.84
2022-07-29T10:35:13.808Z,99194.25
2022-07-29T10:42:17.043Z,99188.25
2022-07-29T10:46:16.777Z,99183.22
2022-07-29T10:58:43.518Z,99188.38
2022-07-29T11:11:24.211Z,99182.78
2022-07-29T11:19:10.077Z,99197.75
2022-07-29T11:21:53.779Z,99195.03
2022-07-29T11:29:31.648Z,99202.06
2022-07-29T11:37:12.656Z,99197.88
2022-07-29T11:49:38.436Z,99199.13
2022-07-29T11:52:19.407Z,99191.44
2022-07-29T11:54:58.012Z,99192.53
2022-07-29T11:58:49.266Z,99205.84
2022-07-29T12:01:42.204Z,99203.63
2022-07-29T12:04:25.640Z,99193.38
2022-07-29T12:07:33.792Z,99185.97
2022-07-29T12:10:05.026Z,99186.50
2022-07-29T12:12:34.489Z,99187.56
2022-07-29T12:15:13.520Z,99194.13
2022-07-29T12:21:25.749Z,99186.09
2022-07-29T12:24:18.802Z,99185.53
2022-07-29T12:27:40.574Z,99183.47
2022-07-29T12:31:43.360Z,99184.97
2022-07-29T12:35:13.327Z,99180.88
2022-07-29T12:37:52.550Z,99178.84
2022-07-29T12:40:24.494Z,99150.72
2022-07-29T12:43:11.884Z,99174.84
2022-07-29T12:45:41.559Z,99171.06
2022-07-29T12:48:10.453Z,99162.03
2022-07-29T12:50:55.537Z,99168.38
2022-07-29T12:53:24.143Z,99178.19
2022-07-29T12:59:40.393Z,99159.84
2022-07-29T13:02:08.319Z,99164.28
2022-07-29T13:04:38.992Z,99176.47
2022-07-29T13:07:17.711Z,99165.50
2022-07-29T13:14:44.723Z,99168.44
2022-07-29T13:17:24.360Z,99166.63
2022-07-29T13:20:08.677Z,99168.78
2022-07-29T13:22:40.089Z,99164.97
2022-07-29T13:25:09.365Z,99153.56
2022-07-29T13:28:30.575Z,99159.06
2022-07-29T13:31:05.678Z,99144.69
2022-07-29T13:33:37.443Z,99154.78
2022-07-29T13:36:05.327Z,99170.91
2022-07-29T13:38:32.482Z,99181.59
2022-07-29T13:50:31.385Z,99171.38
2022-07-29T13:56:07.912Z,99167.41
2022-07-29T13:57:45.850Z,99174.38
2022-07-29T14:01:08.637Z,99177.56
2022-07-29T14:03:45.233Z,99182.91
2022-07-29T14:06:14.734Z,99163.47
2022-07-29T14:08:49.166Z,99159.16
2022-07-29T14:11:34.830Z,99158.50
2022-07-29T14:14:14.232Z,99139.25
2022-07-29T14:16:53.487Z,99146.31
2022-07-29T14:23:45.223Z,99146.81
2022-07-29T14:26:21.570Z,99146.72
2022-07-29T14:34:11.817Z,99150.97
2022-07-29T14:37:15.974Z,99140.56
2022-07-29T14:56:50.509Z,99151.38
2022-07-29T14:59:20.782Z,99143.16
2022-07-29T15:01:48.224Z,99142.97
2022-07-29T15:04:16.051Z,99160.34
2022-07-29T15:06:44.326Z,99156.19
2022-07-29T15:09:12.507Z,99129.66
2022-07-29T15:11:40.641Z,99150.69
2022-07-29T15:14:08.303Z,99141.47
2022-07-29T15:16:41.977Z,99151.25
2022-07-29T15:19:12.422Z,99165.88
2022-07-29T15:21:41.690Z,99140.13
2022-07-29T15:24:18.149Z,99144.81
2022-07-29T15:26:45.907Z,99148.97
2022-07-29T15:29:14.608Z,99145.84
2022-07-29T15:31:42.520Z,99151.31
2022-07-29T15:34:10.368Z,99162.22
2022-07-29T15:36:53.977Z,99155.56
2022-07-29T15:39:27.181Z,99151.09
2022-07-29T15:41:56.378Z,99146.44
2022-07-29T15:44:24.277Z,99164.41
2022-07-29T15:47:04.105Z,99201.69
2022-07-29T15:49:48.273Z,99192.88
2022-07-29T15:52:26.173Z,99185.44
2022-07-29T15:54:59.545Z,99187.84
2022-07-29T15:57:33.229Z,99179.97
2022-07-29T16:00:00.708Z,99207.22
2022-07-29T16:02:28.051Z,99187.28
2022-07-29T16:04:55.378Z,99212.00
2022-07-29T16:07:22.624Z,99200.03
2022-07-29T16:09:53.447Z,99190.41
2022-07-29T16:12:21.876Z,99218.72
2022-07-29T16:14:53.558Z,99235.69
2022-07-29T16:17:21.537Z,99221.53
2022-07-29T16:19:49.222Z,99212.25
2022-07-29T16:22:17.066Z,99211.94
2022-07-29T16:24:44.893Z,99232.63
2022-07-29T16:27:12.851Z,99226.47
2022-07-29T16:29:43.636Z,99238.63
2022-07-29T16:32:11.458Z,99222.31
2022-07-29T16:34:38.908Z,99237.47
2022-07-29T16:37:09.658Z,99214.28
2022-07-29T16:39:37.542Z,99221.91
2022-07-29T16:42:05.698Z,99213.47
2022-07-29T16:44:40.805Z,99224.69
2022-07-29T16:47:11.636Z,99208.69
2022-07-29T16:49:39.814Z,99212.16
2022-07-29T16:52:08.384Z,99211.22
2022-07-29T16:54:35.870Z,99222.19
2022-07-29T16:57:03.978Z,99209.84
2022-07-29T16:59:31.586Z,99204.91
2022-07-29T17:02:02.740Z,99205.22
2022-07-29T17:04:31.297Z,99231.34
2022-07-29T17:07:00.131Z,99224.22
2022-07-29T17:09:31.585Z,99210.66
2022-07-29T17:12:02.048Z,99213.75
2022-07-29T17:14:33.156Z,99226.97
2022-07-29T17:17:02.846Z,99215.38
2022-07-29T17:19:33.057Z,99212.22
2022-07-29T17:22:11.319Z,99221.84
2022-07-29T17:24:43.698Z,99236.59
2022-07-29T17:27:11.431Z,99225.22
2022-07-29T17:29:42.213Z,99230.56
2022-07-29T17:32:10.968Z,99227.75
2022-07-29T17:34:42.608Z,99233.69
2022-07-29T17:37:11.226Z,99236.69
2022-07-29T17:39:41.019Z,99216.63
2022-07-29T17:42:09.853Z,99250.59
2022-07-29T17:44:38.125Z,99230.44
2022-07-29T17:47:15.570Z,99222.66
2022-07-29T17:49:49.419Z,99234.66
2022-07-29T17:52:18.724Z,99234.03
2022-07-29T18:01:22.172Z,99222.47
2022-07-29T18:03:49.438Z,99239.31
2022-07-29T18:06:16.900Z,99250.16
2022-07-29T18:08:47.731Z,99232.25
2022-07-29T18:11:15.603Z,99257.16
2022-07-29T18:13:42.858Z,99245.53
2022-07-29T18:16:10.282Z,99239.41
2022-07-29T18:18:37.499Z,99255.91
2022-07-29T18:21:04.873Z,99260.22
2022-07-29T18:23:32.637Z,99256.50
2022-07-29T18:25:59.947Z,99280.13
2022-07-29T18:28:27.160Z,99264.28
2022-07-29T18:30:54.352Z,99262.47
2022-07-29T18:33:22.631Z,99270.22
2022-07-29T18:36:07.688Z,99266.66
2022-07-29T18:38:52.519Z,99252.88
2022-07-29T18:41:19.744Z,99250.91
2022-07-29T18:43:49.956Z,99275.94
2022-07-29T18:46:17.791Z,99276.22
2022-07-29T18:48:48.040Z,99277.66
2022-07-29T18:51:57.337Z,99275.91
2022-07-29T18:54:28.710Z,99276.00
2022-07-29T18:56:56.518Z,99263.34
2022-07-29T18:59:24.053Z,99271.59
2022-07-29T19:01:51.504Z,99271.75
2022-07-29T19:04:22.261Z,99250.50
2022-07-29T19:06:49.454Z,99264.88
2022-07-29T19:09:17.444Z,99271.25
2022-07-29T19:11:45.005Z,99252.59
2022-07-29T19:14:13.533Z,99279.00
2022-07-29T19:16:40.794Z,99266.50
2022-07-29T19:19:08.196Z,99274.72
2022-07-29T19:21:36.159Z,99249.31
2022-07-29T19:24:09.246Z,99270.69
2022-07-29T19:31:23.210Z,99261.06
2022-07-29T19:34:35.862Z,99271.78
2022-07-29T19:46:21.159Z,99261.72
2022-07-29T19:49:03.182Z,99270.94
2022-07-29T19:51:33.671Z,99256.81
2022-07-29T19:54:05.124Z,99248.38
2022-07-29T20:04:31.842Z,99263.31
2022-07-29T20:07:42.098Z,99265.56
2022-07-29T20:10:16.148Z,99247.50
2022-07-29T20:12:43.550Z,99246.84
2022-07-29T20:15:31.463Z,99288.69
2022-07-29T20:17:59.191Z,99249.19
2022-07-29T20:20:32.930Z,99263.22
2022-07-29T20:23:34.133Z,99239.25
2022-07-29T20:30:04.683Z,99290.88
2022-07-29T20:32:41.432Z,99266.69
2022-07-29T20:39:14.090Z,99289.72
2022-07-29T20:42:08.258Z,99291.75
2022-07-29T20:44:36.527Z,99314.28
2022-07-29T20:47:04.097Z,99280.75
2022-07-29T20:49:38.996Z,99284.72
2022-07-29T20:52:06.795Z,99289.47
2022-07-29T20:54:34.724Z,99283.97
2022-07-29T20:57:39.079Z,99298.91
2022-07-29T21:00:14.866Z,99293.56
2022-07-29T21:02:53.054Z,99302.06
2022-07-29T21:09:36.678Z,99316.38
2022-07-29T21:12:05.186Z,99315.28
2022-07-29T21:14:37.278Z,99333.44
2022-07-29T21:17:13.789Z,99326.13
2022-07-29T21:20:08.981Z,99360.94
2022-07-29T21:22:43.215Z,99327.31
2022-07-29T21:25:31.370Z,99329.22
2022-07-29T21:28:34.761Z,99341.00
2022-07-29T21:32:08.398Z,99343.44
2022-07-29T21:43:24.800Z,99337.28
2022-07-29T21:46:43.378Z,99353.63
2022-07-29T21:50:05.238Z,99350.19
2022-07-29T21:52:37.784Z,99345.34
2022-07-29T21:55:38.809Z,99349.72
2022-07-29T21:58:41.190Z,99344.53
2022-07-29T22:01:10.775Z,99351.53
2022-07-29T22:03:39.206Z,99342.59
2022-07-29T22:06:06.960Z,99352.00
2022-07-29T22:09:10.134Z,99362.84
2022-07-29T22:11:48.139Z,99353.34
2022-07-29T22:14:21.287Z,99358.13
2022-07-29T22:17:56.829Z,99356.06
2022-07-29T22:20:27.609Z,99345.69
2022-07-29T22:22:55.167Z,99353.50
2022-07-29T22:25:23.020Z,99364.13
2022-07-29T22:27:50.251Z,99399.09
2022-07-29T22:30:18.108Z,99365.44
2022-07-29T22:32:45.442Z,99365.44
2022-07-29T22:35:12.837Z,99379.31
2022-07-29T22:37:40.476Z,99379.38
2022-07-29T22:40:08.284Z,99386.19
2022-07-29T22:42:40.771Z,99358.69
2022-07-29T22:45:10.041Z,99364.84
2022-07-29T22:47:48.112Z,99374.75
2022-07-29T22:50:17.288Z,99381.31
2022-07-29T22:52:45.913Z,99391.47
2022-07-29T22:55:13.970Z,99372.84
2022-07-29T23:02:02.550Z,99400.25
2022-07-29T23:04:37.324Z,99396.03
2022-07-29T23:10:52.835Z,99402.47
2022-07-29T23:13:20.323Z,99389.59
2022-07-29T23:15:56.902Z,99404.91
2022-07-29T23:18:43.807Z,99421.28
2022-07-29T23:24:55.426Z,99396.69
2022-07-29T23:27:22.860Z,99374.63
2022-07-29T23:29:50.467Z,99427.41
2022-07-29T23:32:42.725Z,99407.75
2022-07-29T23:35:10.385Z,99391.00
2022-07-29T23:41:31.248Z,99388.91
2022-07-29T23:44:07.452Z,99388.69
2022-07-29T23:51:43.407Z,99427.59
